createdAt,value
2017-01-14T00:00:31.491Z,0
2017-01-14T00:01:31.458Z,0
2017-01-14T00:02:31.431Z,0
2017-01-14T00:03:31.412Z,0
2017-01-14T00:04:31.393Z,0
2017-01-14T00:05:31.376Z,0
2017-01-14T00:06:31.364Z,0
2017-01-14T00:07:31.728Z,0
2017-01-14T00:08:31.307Z,0
2017-01-14T00:09:31.290Z,0
2017-01-14T00:10:31.272Z,0
2017-01-14T00:11:31.251Z,0
2017-01-14T00:12:31.225Z,0
2017-01-14T00:13:31.228Z,0
2017-01-14T00:14:31.183Z,0
2017-01-14T00:15:31.165Z,0
2017-01-14T00:16:31.148Z,0
2017-01-14T00:17:31.121Z,0
2017-01-14T00:18:31.095Z,0
2017-01-14T00:19:31.078Z,0
2017-01-14T00:20:31.055Z,0
2017-01-14T00:21:31.038Z,0
2017-01-14T00:22:31.422Z,0
2017-01-14T00:23:30.989Z,0
2017-01-14T00:24:30.978Z,0
2017-01-14T00:25:30.949Z,0
2017-01-14T00:26:30.938Z,0
2017-01-14T00:27:30.911Z,0
2017-01-14T00:28:30.887Z,0
2017-01-14T00:29:31.268Z,0
2017-01-14T00:30:30.844Z,0
2017-01-14T00:31:30.822Z,0
2017-01-14T00:32:30.804Z,0
2017-01-14T00:33:30.777Z,0
2017-01-14T00:34:30.811Z,0
2017-01-14T00:35:30.740Z,0
2017-01-14T00:36:30.715Z,0
2017-01-14T00:37:30.700Z,0
2017-01-14T00:38:30.678Z,0
2017-01-14T00:39:30.654Z,0
2017-01-14T00:40:30.638Z,0
2017-01-14T00:41:30.615Z,0
2017-01-14T00:42:30.596Z,0
2017-01-14T00:43:30.573Z,0
2017-01-14T00:44:30.556Z,0
2017-01-14T00:45:30.530Z,0
2017-01-14T00:46:30.511Z,0
2017-01-14T00:47:30.488Z,0
2017-01-14T00:48:30.473Z,0
2017-01-14T00:49:30.449Z,0
2017-01-14T00:50:30.432Z,0
2017-01-14T00:51:30.406Z,0
2017-01-14T00:52:30.488Z,0
2017-01-14T00:53:30.365Z,0
2017-01-14T00:54:30.343Z,0
2017-01-14T00:55:30.328Z,0
2017-01-14T00:56:30.300Z,0
2017-01-14T00:57:30.283Z,0
2017-01-14T00:58:30.257Z,0
2017-01-14T00:59:30.273Z,0
2017-01-14T01:00:30.615Z,0
2017-01-14T01:01:30.190Z,0
2017-01-14T01:02:30.176Z,0
2017-01-14T01:03:30.574Z,0
2017-01-14T01:04:30.385Z,0
2017-01-14T01:05:30.113Z,0
2017-01-14T01:06:30.114Z,0
2017-01-14T01:07:30.070Z,0
2017-01-14T01:08:30.049Z,0
2017-01-14T01:09:30.080Z,0
2017-01-14T01:10:30.010Z,0
2017-01-14T01:11:29.986Z,0
2017-01-14T01:12:29.975Z,0
2017-01-14T01:13:29.979Z,0
2017-01-14T01:14:29.933Z,0
2017-01-14T01:15:29.907Z,0
2017-01-14T01:16:29.884Z,0
2017-01-14T01:17:29.860Z,0
2017-01-14T01:18:29.841Z,0
2017-01-14T01:19:29.825Z,0
2017-01-14T01:20:29.797Z,0
2017-01-14T01:21:29.778Z,0
2017-01-14T01:22:29.752Z,0
2017-01-14T01:23:29.745Z,0
2017-01-14T01:24:29.718Z,0
2017-01-14T01:25:30.087Z,0
2017-01-14T01:26:29.673Z,0
2017-01-14T01:27:29.652Z,0
2017-01-14T01:28:29.635Z,0
2017-01-14T01:29:29.619Z,0
2017-01-14T01:30:29.587Z,0
2017-01-14T01:31:29.565Z,0
2017-01-14T01:32:29.549Z,0
2017-01-14T01:33:29.917Z,0
2017-01-14T01:34:29.508Z,0
2017-01-14T01:35:29.489Z,0
2017-01-14T01:36:29.458Z,0
2017-01-14T01:37:29.443Z,0
2017-01-14T01:38:29.423Z,0
2017-01-14T01:39:29.799Z,0
2017-01-14T01:40:29.779Z,0
2017-01-14T01:41:29.357Z,0
2017-01-14T01:42:29.337Z,0
2017-01-14T01:43:29.317Z,0
2017-01-14T01:44:30.102Z,0
2017-01-14T01:45:29.272Z,0
2017-01-14T01:46:29.650Z,0
2017-01-14T01:47:29.232Z,0
2017-01-14T01:48:29.209Z,0
2017-01-14T01:49:29.196Z,0
2017-01-14T01:50:29.180Z,0
2017-01-14T01:51:29.145Z,0
2017-01-14T01:52:29.133Z,0
2017-01-14T01:53:29.103Z,0
2017-01-14T01:54:29.149Z,0
2017-01-14T01:55:29.065Z,0
2017-01-14T01:56:29.044Z,0
2017-01-14T01:57:29.026Z,0
2017-01-14T01:58:29.003Z,0
2017-01-14T01:59:28.982Z,0
2017-01-14T02:00:28.966Z,0
2017-01-14T02:01:28.940Z,0
2017-01-14T02:02:28.917Z,0
2017-01-14T02:03:28.894Z,0
2017-01-14T02:04:28.875Z,0
2017-01-14T02:05:28.850Z,0
2017-01-14T02:06:28.833Z,0
2017-01-14T02:07:28.811Z,0
2017-01-14T02:08:28.793Z,0
2017-01-14T02:09:28.772Z,0
2017-01-14T02:10:28.751Z,0
2017-01-14T02:11:28.733Z,0
2017-01-14T02:12:28.717Z,0
2017-01-14T02:13:29.077Z,0
2017-01-14T02:14:28.671Z,0
2017-01-14T02:15:28.645Z,0
2017-01-14T02:16:28.615Z,0
2017-01-14T02:17:28.596Z,0
2017-01-14T02:18:28.572Z,0
2017-01-14T02:19:28.558Z,0
2017-01-14T02:20:28.537Z,0
2017-01-14T02:21:28.512Z,0
2017-01-14T02:22:28.496Z,0
2017-01-14T02:23:28.470Z,0
2017-01-14T02:24:28.447Z,0
2017-01-14T02:25:28.427Z,0
2017-01-14T02:26:28.408Z,0
2017-01-14T02:27:28.384Z,0
2017-01-14T02:28:28.364Z,0
2017-01-14T02:29:28.340Z,0
2017-01-14T02:30:28.323Z,0
2017-01-14T02:31:28.299Z,0
2017-01-14T02:32:28.282Z,0
2017-01-14T02:33:28.255Z,0
2017-01-14T02:34:28.248Z,0
2017-01-14T02:35:28.212Z,0
2017-01-14T02:36:28.219Z,0
2017-01-14T02:37:28.169Z,0
2017-01-14T02:38:28.145Z,0
2017-01-14T02:39:28.126Z,0
2017-01-14T02:40:28.123Z,0
2017-01-14T02:41:28.086Z,0
2017-01-14T02:42:28.064Z,0
2017-01-14T02:43:28.057Z,0
2017-01-14T02:44:28.027Z,0
2017-01-14T02:45:27.999Z,0
2017-01-14T02:46:27.981Z,0
2017-01-14T02:47:27.953Z,0
2017-01-14T02:48:27.959Z,0
2017-01-14T02:49:28.305Z,0
2017-01-14T02:50:28.362Z,0
2017-01-14T02:51:27.876Z,0
2017-01-14T02:52:28.024Z,0
2017-01-14T02:53:27.852Z,0
2017-01-14T02:54:27.803Z,0
2017-01-14T02:55:27.780Z,0
2017-01-14T02:56:27.768Z,0
2017-01-14T02:57:27.747Z,0
2017-01-14T02:58:27.722Z,0
2017-01-14T02:59:27.693Z,0
2017-01-14T03:00:27.674Z,0
2017-01-14T03:01:28.046Z,0
2017-01-14T03:02:27.636Z,0
2017-01-14T03:03:27.612Z,0
2017-01-14T03:04:28.186Z,0
2017-01-14T03:05:27.571Z,0
2017-01-14T03:06:27.549Z,0
2017-01-14T03:07:27.529Z,0
2017-01-14T03:08:27.898Z,0
2017-01-14T03:09:27.482Z,0
2017-01-14T03:10:27.481Z,0
2017-01-14T03:11:27.438Z,0
2017-01-14T03:12:27.423Z,0
2017-01-14T03:13:27.394Z,0
2017-01-14T03:14:27.370Z,0
2017-01-14T03:15:27.348Z,0
2017-01-14T03:16:27.325Z,0
2017-01-14T03:17:27.302Z,0
2017-01-14T03:18:27.279Z,0
2017-01-14T03:19:27.288Z,0
2017-01-14T03:20:27.237Z,0
2017-01-14T03:21:27.215Z,0
2017-01-14T03:22:27.619Z,0
2017-01-14T03:23:27.171Z,0
2017-01-14T03:24:27.158Z,0
2017-01-14T03:25:27.131Z,0
2017-01-14T03:26:27.108Z,0
2017-01-14T03:27:27.102Z,0
2017-01-14T03:28:27.461Z,0
2017-01-14T03:29:27.045Z,0
2017-01-14T03:30:27.021Z,0
2017-01-14T03:31:27.007Z,0
2017-01-14T03:32:26.977Z,0
2017-01-14T03:33:26.950Z,0
2017-01-14T03:34:26.936Z,0
2017-01-14T03:35:26.913Z,0
2017-01-14T03:36:26.891Z,0
2017-01-14T03:37:26.869Z,0
2017-01-14T03:38:26.848Z,0
2017-01-14T03:39:26.822Z,0
2017-01-14T03:40:26.800Z,0
2017-01-14T03:41:26.784Z,0
2017-01-14T03:42:26.759Z,0
2017-01-14T03:43:26.741Z,0
2017-01-14T03:44:26.715Z,0
2017-01-14T03:45:26.695Z,0
2017-01-14T03:46:26.666Z,0
2017-01-14T03:47:26.652Z,0
2017-01-14T03:48:26.629Z,0
2017-01-14T03:49:26.605Z,0
2017-01-14T03:50:26.587Z,0
2017-01-14T03:51:26.566Z,0
2017-01-14T03:52:26.574Z,0
2017-01-14T03:53:26.544Z,0
2017-01-14T03:54:26.501Z,0
2017-01-14T03:55:26.479Z,0
2017-01-14T03:56:26.454Z,0
2017-01-14T03:57:26.438Z,0
2017-01-14T03:58:26.419Z,0
2017-01-14T03:59:26.783Z,0
2017-01-14T04:00:26.372Z,0
2017-01-14T04:01:26.347Z,0
2017-01-14T04:02:26.327Z,0
2017-01-14T04:03:26.301Z,0
2017-01-14T04:04:26.282Z,0
2017-01-14T04:05:26.255Z,0
2017-01-14T04:06:26.241Z,0
2017-01-14T04:07:26.209Z,0
2017-01-14T04:08:26.194Z,0
2017-01-14T04:09:26.174Z,0
2017-01-14T04:10:26.170Z,0
2017-01-14T04:11:26.135Z,0
2017-01-14T04:12:26.503Z,0
2017-01-14T04:13:26.090Z,0
2017-01-14T04:14:26.071Z,0
2017-01-14T04:15:26.036Z,0
2017-01-14T04:16:26.113Z,0
2017-01-14T04:17:26.026Z,0
2017-01-14T04:18:25.984Z,0
2017-01-14T04:19:25.952Z,0
2017-01-14T04:20:25.934Z,0
2017-01-14T04:21:25.911Z,0
2017-01-14T04:22:26.284Z,0
2017-01-14T04:23:25.872Z,0
2017-01-14T04:24:25.840Z,0
2017-01-14T04:25:25.828Z,0
2017-01-14T04:26:25.797Z,0
2017-01-14T04:27:25.783Z,0
2017-01-14T04:28:25.756Z,0
2017-01-14T04:29:25.737Z,0
2017-01-14T04:30:25.744Z,0
2017-01-14T04:31:25.690Z,0
2017-01-14T04:32:25.669Z,0
2017-01-14T04:33:25.650Z,0
2017-01-14T04:34:25.626Z,0
2017-01-14T04:35:26.011Z,0
2017-01-14T04:36:25.582Z,0
2017-01-14T04:37:25.564Z,0
2017-01-14T04:38:25.936Z,0
2017-01-14T04:39:25.519Z,0
2017-01-14T04:40:25.901Z,0
2017-01-14T04:41:25.472Z,0
2017-01-14T04:42:25.458Z,0
2017-01-14T04:43:25.836Z,0
2017-01-14T04:44:25.415Z,0
2017-01-14T04:45:25.391Z,0
2017-01-14T04:46:25.373Z,0
2017-01-14T04:47:25.355Z,0
2017-01-14T04:48:25.716Z,0
2017-01-14T04:49:25.308Z,0
2017-01-14T04:50:25.282Z,0
2017-01-14T04:51:25.266Z,0
2017-01-14T04:52:25.243Z,0
2017-01-14T04:53:25.223Z,0
2017-01-14T04:54:25.199Z,0
2017-01-14T04:55:25.173Z,0
2017-01-14T04:56:25.151Z,0
2017-01-14T04:57:25.128Z,0
2017-01-14T04:58:25.106Z,0
2017-01-14T04:59:25.086Z,0
2017-01-14T05:00:25.061Z,0
2017-01-14T05:01:25.042Z,0
2017-01-14T05:02:25.020Z,0
2017-01-14T05:03:25.001Z,0
2017-01-14T05:04:25.182Z,0
2017-01-14T05:05:24.959Z,0
2017-01-14T05:06:24.934Z,0
2017-01-14T05:07:24.915Z,0
2017-01-14T05:08:24.893Z,0
2017-01-14T05:09:24.866Z,0
2017-01-14T05:10:24.848Z,0
2017-01-14T05:11:24.820Z,0
2017-01-14T05:12:24.805Z,0
2017-01-14T05:13:25.176Z,0
2017-01-14T05:14:24.771Z,0
2017-01-14T05:15:24.742Z,0
2017-01-14T05:16:24.713Z,0
2017-01-14T05:17:25.084Z,0
2017-01-14T05:18:24.670Z,0
2017-01-14T05:19:25.044Z,0
2017-01-14T05:20:24.624Z,0
2017-01-14T05:21:24.604Z,0
2017-01-14T05:22:24.587Z,0
2017-01-14T05:23:24.563Z,0
2017-01-14T05:24:24.569Z,0
2017-01-14T05:25:24.528Z,0
2017-01-14T05:26:24.496Z,0
2017-01-14T05:27:24.862Z,0
2017-01-14T05:28:24.455Z,0
2017-01-14T05:29:24.432Z,0
2017-01-14T05:30:24.433Z,0
2017-01-14T05:31:24.382Z,0
2017-01-14T05:32:24.363Z,0
2017-01-14T05:33:24.361Z,0
2017-01-14T05:34:24.320Z,0
2017-01-14T05:35:24.300Z,0
2017-01-14T05:36:24.274Z,0
2017-01-14T05:37:24.259Z,0
2017-01-14T05:38:24.229Z,0
2017-01-14T05:39:24.202Z,0
2017-01-14T05:40:24.200Z,0
2017-01-14T05:41:24.161Z,0
2017-01-14T05:42:24.149Z,0
2017-01-14T05:43:24.128Z,0
2017-01-14T05:44:24.142Z,0
2017-01-14T05:45:24.104Z,0
2017-01-14T05:46:24.057Z,0
2017-01-14T05:47:24.038Z,0
2017-01-14T05:48:24.012Z,0
2017-01-14T05:49:23.985Z,0
2017-01-14T05:50:23.966Z,0
2017-01-14T05:51:23.951Z,0
2017-01-14T05:52:24.354Z,0
2017-01-14T05:53:23.917Z,0
2017-01-14T05:54:23.884Z,0
2017-01-14T05:55:23.856Z,0
2017-01-14T05:56:23.837Z,0
2017-01-14T05:57:23.811Z,0
2017-01-14T05:58:23.817Z,0
2017-01-14T05:59:23.768Z,0
2017-01-14T06:00:23.747Z,0
2017-01-14T06:01:23.718Z,0
2017-01-14T06:02:23.702Z,0
2017-01-14T06:03:23.670Z,0
2017-01-14T06:04:24.046Z,0
2017-01-14T06:05:23.630Z,0
2017-01-14T06:06:23.610Z,0
2017-01-14T06:07:23.587Z,0
2017-01-14T06:08:23.569Z,0
2017-01-14T06:09:23.545Z,0
2017-01-14T06:10:23.527Z,0
2017-01-14T06:11:23.501Z,0
2017-01-14T06:12:23.477Z,0
2017-01-14T06:13:23.454Z,0
2017-01-14T06:14:23.434Z,0
2017-01-14T06:15:23.807Z,0
2017-01-14T06:16:23.787Z,0
2017-01-14T06:17:23.359Z,0
2017-01-14T06:18:23.342Z,0
2017-01-14T06:19:23.319Z,0
2017-01-14T06:20:23.292Z,0
2017-01-14T06:21:23.270Z,0
2017-01-14T06:22:23.250Z,0
2017-01-14T06:23:23.231Z,0
2017-01-14T06:24:23.202Z,0
2017-01-14T06:25:23.186Z,0
2017-01-14T06:26:23.165Z,0
2017-01-14T06:27:23.148Z,0
2017-01-14T06:28:23.170Z,0
2017-01-14T06:29:23.099Z,0
2017-01-14T06:30:23.080Z,0
2017-01-14T06:31:23.451Z,0
2017-01-14T06:32:23.032Z,0
2017-01-14T06:33:23.006Z,0
2017-01-14T06:34:23.379Z,0
2017-01-14T06:35:22.966Z,0
2017-01-14T06:36:22.954Z,0
2017-01-14T06:37:22.909Z,0
2017-01-14T06:38:22.889Z,0
2017-01-14T06:39:22.863Z,0
2017-01-14T06:40:22.841Z,0
2017-01-14T06:41:22.827Z,0
2017-01-14T06:42:22.799Z,0
2017-01-14T06:43:22.779Z,0
2017-01-14T06:44:22.776Z,0
2017-01-14T06:45:22.736Z,0
2017-01-14T06:46:22.707Z,0
2017-01-14T06:47:22.683Z,0
2017-01-14T06:48:22.662Z,0
2017-01-14T06:49:22.643Z,0
2017-01-14T06:50:22.615Z,0
2017-01-14T06:51:22.596Z,0
2017-01-14T06:52:22.965Z,0
2017-01-14T06:53:22.608Z,0
2017-01-14T06:54:22.548Z,0
2017-01-14T06:55:22.505Z,0
2017-01-14T06:56:22.480Z,0
2017-01-14T06:57:22.457Z,0
2017-01-14T06:58:22.444Z,0
2017-01-14T06:59:22.417Z,0
2017-01-14T07:00:22.392Z,0
2017-01-14T07:01:22.368Z,0
2017-01-14T07:02:22.348Z,0
2017-01-14T07:03:22.328Z,0
2017-01-14T07:04:22.712Z,0
2017-01-14T07:05:22.282Z,0
2017-01-14T07:06:22.257Z,0
2017-01-14T07:07:22.232Z,0
2017-01-14T07:08:22.214Z,0
2017-01-14T07:09:22.195Z,0
2017-01-14T07:10:22.165Z,0
2017-01-14T07:11:22.555Z,0
2017-01-14T07:12:22.130Z,0
2017-01-14T07:13:22.103Z,0
2017-01-14T07:14:22.070Z,0
2017-01-14T07:15:22.053Z,0
2017-01-14T07:16:22.030Z,0
2017-01-14T07:17:22.415Z,0
2017-01-14T07:18:22.060Z,0
2017-01-14T07:19:21.963Z,0
2017-01-14T07:20:21.939Z,0
2017-01-14T07:21:21.922Z,0
2017-01-14T07:22:21.900Z,0
2017-01-14T07:23:21.870Z,0
2017-01-14T07:24:21.850Z,0
2017-01-14T07:25:21.829Z,0
2017-01-14T07:26:22.207Z,0
2017-01-14T07:27:21.812Z,5
2017-01-14T07:28:21.757Z,5
2017-01-14T07:29:21.739Z,5
2017-01-14T07:30:21.722Z,5
2017-01-14T07:31:21.693Z,5
2017-01-14T07:32:21.671Z,5
2017-01-14T07:33:21.644Z,5
2017-01-14T07:34:22.068Z,5
2017-01-14T07:35:21.607Z,5
2017-01-14T07:36:21.973Z,5
2017-01-14T07:37:21.554Z,10
2017-01-14T07:38:21.530Z,10
2017-01-14T07:39:21.514Z,10
2017-01-14T07:40:21.489Z,10
2017-01-14T07:41:21.463Z,10
2017-01-14T07:42:21.437Z,10
2017-01-14T07:43:21.416Z,10
2017-01-14T07:44:21.390Z,15
2017-01-14T07:45:21.368Z,15
2017-01-14T07:46:21.350Z,20
2017-01-14T07:47:21.324Z,20
2017-01-14T07:48:21.306Z,25
2017-01-14T07:49:21.283Z,30
2017-01-14T07:50:21.704Z,25
2017-01-14T07:51:21.268Z,20
2017-01-14T07:52:21.214Z,20
2017-01-14T07:53:21.190Z,25
2017-01-14T07:54:21.199Z,25
2017-01-14T07:55:21.148Z,30
2017-01-14T07:56:21.118Z,30
2017-01-14T07:57:21.096Z,30
2017-01-14T07:58:21.080Z,30
2017-01-14T07:59:21.053Z,30
2017-01-14T08:00:21.026Z,35
2017-01-14T08:01:20.998Z,35
2017-01-14T08:02:21.382Z,40
2017-01-14T08:03:20.959Z,40
2017-01-14T08:04:20.943Z,40
2017-01-14T08:05:20.915Z,35
2017-01-14T08:06:20.923Z,40
2017-01-14T08:07:20.872Z,40
2017-01-14T08:08:20.842Z,40
2017-01-14T08:09:20.828Z,45
2017-01-14T08:10:20.801Z,45
2017-01-14T08:11:20.778Z,40
2017-01-14T08:12:20.759Z,40
2017-01-14T08:13:20.737Z,45
2017-01-14T08:14:20.709Z,45
2017-01-14T08:15:20.744Z,45
2017-01-14T08:16:21.585Z,45
2017-01-14T08:17:20.662Z,50
2017-01-14T08:18:20.623Z,55
2017-01-14T08:19:20.604Z,45
2017-01-14T08:20:20.577Z,40
2017-01-14T08:21:20.551Z,45
2017-01-14T08:22:20.928Z,40
2017-01-14T08:23:20.510Z,45
2017-01-14T08:24:20.479Z,50
2017-01-14T08:25:20.464Z,50
2017-01-14T08:26:20.436Z,55
2017-01-14T08:27:20.416Z,50
2017-01-14T08:28:20.397Z,50
2017-01-14T08:29:20.388Z,50
2017-01-14T08:30:20.756Z,55
2017-01-14T08:31:20.335Z,50
2017-01-14T08:32:20.314Z,55
2017-01-14T08:33:20.285Z,55
2017-01-14T08:34:20.263Z,50
2017-01-14T08:35:20.240Z,55
2017-01-14T08:36:20.665Z,55
2017-01-14T08:37:20.197Z,55
2017-01-14T08:38:20.579Z,55
2017-01-14T08:39:20.149Z,55
2017-01-14T08:40:20.123Z,50
2017-01-14T08:41:20.107Z,50
2017-01-14T08:42:20.082Z,50
2017-01-14T08:43:20.067Z,50
2017-01-14T08:44:20.042Z,50
2017-01-14T08:45:20.407Z,50
2017-01-14T08:46:20.026Z,55
2017-01-14T08:47:20.384Z,55
2017-01-14T08:48:19.959Z,55
2017-01-14T08:49:19.933Z,55
2017-01-14T08:50:19.902Z,55
2017-01-14T08:51:19.884Z,60
2017-01-14T08:52:19.860Z,60
2017-01-14T08:53:19.842Z,60
2017-01-14T08:54:19.809Z,60
2017-01-14T08:55:19.801Z,60
2017-01-14T08:56:19.773Z,65
2017-01-14T08:57:19.750Z,65
2017-01-14T08:58:19.720Z,65
2017-01-14T08:59:19.704Z,70
2017-01-14T09:00:19.680Z,70
2017-01-14T09:01:19.658Z,70
2017-01-14T09:02:19.633Z,70
2017-01-14T09:03:19.629Z,70
2017-01-14T09:04:19.589Z,75
2017-01-14T09:05:20.174Z,75
2017-01-14T09:06:19.547Z,80
2017-01-14T09:07:19.533Z,85
2017-01-14T09:08:19.501Z,90
2017-01-14T09:09:19.483Z,95
2017-01-14T09:10:19.457Z,105
2017-01-14T09:11:19.433Z,120
2017-01-14T09:12:19.411Z,130
2017-01-14T09:13:19.393Z,145
2017-01-14T09:14:19.368Z,150
2017-01-14T09:15:19.350Z,160
2017-01-14T09:16:19.325Z,170
2017-01-14T09:17:19.405Z,175
2017-01-14T09:18:19.286Z,175
2017-01-14T09:19:19.264Z,170
2017-01-14T09:20:19.238Z,170
2017-01-14T09:21:19.247Z,160
2017-01-14T09:22:19.193Z,155
2017-01-14T09:23:19.184Z,145
2017-01-14T09:24:19.161Z,145
2017-01-14T09:25:19.133Z,140
2017-01-14T09:26:19.559Z,135
2017-01-14T09:27:19.099Z,135
2017-01-14T09:28:19.078Z,135
2017-01-14T09:29:19.050Z,130
2017-01-14T09:30:19.033Z,130
2017-01-14T09:31:19.010Z,130
2017-01-14T09:32:18.985Z,125
2017-01-14T09:33:18.971Z,125
2017-01-14T09:34:18.947Z,120
2017-01-14T09:35:18.927Z,120
2017-01-14T09:36:18.898Z,120
2017-01-14T09:37:18.884Z,120
2017-01-14T09:38:18.860Z,120
2017-01-14T09:39:18.837Z,120
2017-01-14T09:40:18.818Z,115
2017-01-14T09:41:18.802Z,115
2017-01-14T09:42:18.783Z,120
2017-01-14T09:43:18.754Z,120
2017-01-14T09:44:18.746Z,120
2017-01-14T09:45:18.777Z,120
2017-01-14T09:46:18.698Z,115
2017-01-14T09:47:18.680Z,120
2017-01-14T09:48:18.667Z,120
2017-01-14T09:49:18.635Z,125
2017-01-14T09:50:19.026Z,125
2017-01-14T09:51:18.600Z,125
2017-01-14T09:52:18.631Z,125
2017-01-14T09:53:18.560Z,130
2017-01-14T09:54:18.537Z,130
2017-01-14T09:55:18.910Z,130
2017-01-14T09:56:18.496Z,130
2017-01-14T09:57:18.473Z,130
2017-01-14T09:58:18.496Z,135
2017-01-14T09:59:18.441Z,135
2017-01-14T10:00:18.428Z,140
2017-01-14T10:01:18.397Z,145
2017-01-14T10:02:18.370Z,150
2017-01-14T10:03:18.357Z,150
2017-01-14T10:04:18.332Z,155
2017-01-14T10:05:18.307Z,160
2017-01-14T10:06:18.685Z,160
2017-01-14T10:07:18.666Z,165
2017-01-14T10:08:18.264Z,165
2017-01-14T10:09:18.232Z,165
2017-01-14T10:10:18.205Z,165
2017-01-14T10:11:18.185Z,165
2017-01-14T10:12:18.163Z,165
2017-01-14T10:13:18.149Z,170
2017-01-14T10:14:18.131Z,180
2017-01-14T10:15:18.104Z,200
2017-01-14T10:16:18.086Z,205
2017-01-14T10:17:18.065Z,195
2017-01-14T10:18:18.050Z,195
2017-01-14T10:19:18.031Z,185
2017-01-14T10:20:18.010Z,185
2017-01-14T10:21:18.001Z,185
2017-01-14T10:22:17.976Z,170
2017-01-14T10:23:17.955Z,165
2017-01-14T10:24:17.924Z,165
2017-01-14T10:25:17.912Z,170
2017-01-14T10:26:17.909Z,170
2017-01-14T10:27:17.872Z,165
2017-01-14T10:28:17.855Z,190
2017-01-14T10:29:17.838Z,210
2017-01-14T10:30:17.822Z,195
2017-01-14T10:31:17.824Z,210
2017-01-14T10:32:17.773Z,240
2017-01-14T10:33:17.768Z,240
2017-01-14T10:34:17.736Z,200
2017-01-14T10:35:17.714Z,225
2017-01-14T10:36:17.701Z,275
2017-01-14T10:37:17.681Z,290
2017-01-14T10:38:17.657Z,315
2017-01-14T10:39:17.641Z,285
2017-01-14T10:40:17.622Z,285
2017-01-14T10:41:17.607Z,315
2017-01-14T10:42:17.583Z,365
2017-01-14T10:43:17.578Z,350
2017-01-14T10:44:17.551Z,425
2017-01-14T10:45:17.929Z,380
2017-01-14T10:46:17.519Z,295
2017-01-14T10:47:17.518Z,295
2017-01-14T10:48:17.531Z,390
2017-01-14T10:49:17.448Z,285
2017-01-14T10:50:17.447Z,270
2017-01-14T10:51:17.428Z,295
2017-01-14T10:52:17.409Z,280
2017-01-14T10:53:17.394Z,280
2017-01-14T10:54:17.428Z,225
2017-01-14T10:55:17.352Z,170
2017-01-14T10:56:17.733Z,175
2017-01-14T10:57:17.333Z,170
2017-01-14T10:58:17.300Z,155
2017-01-14T10:59:17.287Z,290
2017-01-14T11:00:17.271Z,200
2017-01-14T11:01:17.301Z,330
2017-01-14T11:02:17.629Z,295
2017-01-14T11:03:17.222Z,220
2017-01-14T11:04:17.243Z,390
2017-01-14T11:05:17.400Z,210
2017-01-14T11:06:17.166Z,135
2017-01-14T11:07:17.203Z,375
2017-01-14T11:08:17.139Z,405
2017-01-14T11:09:17.135Z,380
2017-01-14T11:10:17.121Z,365
2017-01-14T11:11:17.101Z,220
2017-01-14T11:12:17.070Z,375
2017-01-14T11:13:17.451Z,180
2017-01-14T11:14:17.033Z,160
2017-01-14T11:15:17.418Z,170
2017-01-14T11:16:17.029Z,180
2017-01-14T11:17:16.986Z,200
2017-01-14T11:18:16.962Z,245
2017-01-14T11:19:17.394Z,220
2017-01-14T11:20:16.930Z,165
2017-01-14T11:21:16.958Z,145
2017-01-14T11:22:16.890Z,175
2017-01-14T11:23:16.876Z,190
2017-01-14T11:24:16.857Z,170
2017-01-14T11:25:16.850Z,210
2017-01-14T11:26:16.824Z,160
2017-01-14T11:27:16.928Z,95
2017-01-14T11:28:17.217Z,95
2017-01-14T11:29:16.786Z,205
2017-01-14T11:30:16.766Z,445
2017-01-14T11:31:16.740Z,200
2017-01-14T11:32:16.724Z,210
2017-01-14T11:33:16.707Z,215
2017-01-14T11:34:16.695Z,210
2017-01-14T11:35:16.762Z,250
2017-01-14T11:36:16.650Z,195
2017-01-14T11:37:16.647Z,215
2017-01-14T11:38:16.620Z,225
2017-01-14T11:39:16.643Z,185
2017-01-14T11:40:16.981Z,135
2017-01-14T11:41:16.563Z,135
2017-01-14T11:42:16.601Z,175
2017-01-14T11:43:16.526Z,150
2017-01-14T11:44:16.512Z,95
2017-01-14T11:45:16.501Z,135
2017-01-14T11:46:16.469Z,195
2017-01-14T11:47:16.458Z,130
2017-01-14T11:48:16.833Z,140
2017-01-14T11:49:16.423Z,90
2017-01-14T11:50:16.400Z,85
2017-01-14T11:51:16.377Z,90
2017-01-14T11:52:16.391Z,85
2017-01-14T11:53:16.367Z,120
2017-01-14T11:54:16.719Z,135
2017-01-14T11:55:16.302Z,175
2017-01-14T11:56:16.313Z,210
2017-01-14T11:57:16.264Z,220
2017-01-14T11:58:16.243Z,205
2017-01-14T11:59:16.232Z,180
2017-01-14T12:00:16.208Z,240
2017-01-14T12:01:16.195Z,250
2017-01-14T12:02:16.207Z,235
2017-01-14T12:03:16.224Z,255
2017-01-14T12:04:16.164Z,210
2017-01-14T12:05:16.117Z,215
2017-01-14T12:06:16.093Z,235
2017-01-14T12:07:16.478Z,215
2017-01-14T12:08:16.056Z,215
2017-01-14T12:09:16.040Z,220
2017-01-14T12:10:16.020Z,255
2017-01-14T12:11:16.397Z,230
2017-01-14T12:12:16.108Z,215
2017-01-14T12:13:16.388Z,190
2017-01-14T12:14:15.955Z,165
2017-01-14T12:15:15.933Z,160
2017-01-14T12:16:15.916Z,145
2017-01-14T12:17:15.909Z,150
2017-01-14T12:18:15.878Z,160
2017-01-14T12:19:15.878Z,255
2017-01-14T12:20:15.837Z,305
2017-01-14T12:21:15.835Z,340
2017-01-14T12:22:15.860Z,185
2017-01-14T12:23:15.787Z,175
2017-01-14T12:24:15.795Z,160
2017-01-14T12:25:15.759Z,160
2017-01-14T12:26:15.732Z,155
2017-01-14T12:27:15.713Z,155
2017-01-14T12:28:15.751Z,160
2017-01-14T12:29:15.680Z,170
2017-01-14T12:30:15.668Z,170
2017-01-14T12:31:15.636Z,180
2017-01-14T12:32:15.631Z,180
2017-01-14T12:33:16.031Z,180
2017-01-14T12:34:15.584Z,180
2017-01-14T12:35:15.563Z,175
2017-01-14T12:36:15.543Z,175
2017-01-14T12:37:15.541Z,180
2017-01-14T12:38:15.553Z,190
2017-01-14T12:39:15.484Z,185
2017-01-14T12:40:15.465Z,155
2017-01-14T12:41:15.473Z,150
2017-01-14T12:42:15.453Z,160
2017-01-14T12:43:15.410Z,165
2017-01-14T12:44:15.395Z,140
2017-01-14T12:45:15.775Z,110
2017-01-14T12:46:15.357Z,85
2017-01-14T12:47:15.347Z,115
2017-01-14T12:48:15.320Z,145
2017-01-14T12:49:15.307Z,150
2017-01-14T12:50:15.277Z,125
2017-01-14T12:51:15.310Z,165
2017-01-14T12:52:15.242Z,280
2017-01-14T12:53:15.227Z,195
2017-01-14T12:54:15.222Z,160
2017-01-14T12:55:15.191Z,150
2017-01-14T12:56:15.163Z,170
2017-01-14T12:57:15.141Z,165
2017-01-14T12:58:15.522Z,175
2017-01-14T12:59:15.103Z,180
2017-01-14T13:00:15.086Z,185
2017-01-14T13:01:15.066Z,185
2017-01-14T13:02:15.071Z,165
2017-01-14T13:03:15.053Z,130
2017-01-14T13:04:15.039Z,120
2017-01-14T13:05:15.194Z,115
2017-01-14T13:06:14.976Z,130
2017-01-14T13:07:14.971Z,130
2017-01-14T13:08:14.991Z,110
2017-01-14T13:09:14.930Z,115
2017-01-14T13:10:14.904Z,110
2017-01-14T13:11:14.880Z,105
2017-01-14T13:12:14.866Z,80
2017-01-14T13:13:14.837Z,70
2017-01-14T13:14:14.822Z,75
2017-01-14T13:15:14.806Z,90
2017-01-14T13:16:14.779Z,95
2017-01-14T13:17:14.774Z,95
2017-01-14T13:18:14.755Z,85
2017-01-14T13:19:14.730Z,65
2017-01-14T13:20:14.706Z,60
2017-01-14T13:21:14.687Z,65
2017-01-14T13:22:14.672Z,90
2017-01-14T13:23:14.658Z,100
2017-01-14T13:24:14.666Z,95
2017-01-14T13:25:14.620Z,105
2017-01-14T13:26:14.599Z,125
2017-01-14T13:27:14.620Z,135
2017-01-14T13:28:14.548Z,135
2017-01-14T13:29:14.532Z,145
2017-01-14T13:30:14.522Z,130
2017-01-14T13:31:14.495Z,130
2017-01-14T13:32:14.870Z,135
2017-01-14T13:33:14.463Z,130
2017-01-14T13:34:14.868Z,110
2017-01-14T13:35:14.857Z,85
2017-01-14T13:36:14.395Z,70
2017-01-14T13:37:14.381Z,85
2017-01-14T13:38:14.358Z,90
2017-01-14T13:39:14.344Z,80
2017-01-14T13:40:14.311Z,75
2017-01-14T13:41:14.312Z,75
2017-01-14T13:42:14.486Z,75
2017-01-14T13:43:14.265Z,75
2017-01-14T13:44:14.236Z,70
2017-01-14T13:45:14.223Z,60
2017-01-14T13:46:14.196Z,60
2017-01-14T13:47:14.193Z,60
2017-01-14T13:48:14.161Z,55
2017-01-14T13:49:14.143Z,60
2017-01-14T13:50:14.113Z,60
2017-01-14T13:51:14.212Z,60
2017-01-14T13:52:14.076Z,55
2017-01-14T13:53:14.054Z,50
2017-01-14T13:54:14.034Z,45
2017-01-14T13:55:14.021Z,40
2017-01-14T13:56:13.993Z,50
2017-01-14T13:57:13.972Z,45
2017-01-14T13:58:13.966Z,45
2017-01-14T13:59:13.935Z,40
2017-01-14T14:00:14.444Z,40
2017-01-14T14:01:13.899Z,35
2017-01-14T14:02:13.896Z,25
2017-01-14T14:03:13.853Z,20
2017-01-14T14:04:13.836Z,20
2017-01-14T14:05:13.818Z,20
2017-01-14T14:06:13.828Z,25
2017-01-14T14:07:13.779Z,20
2017-01-14T14:08:13.751Z,15
2017-01-14T14:09:13.731Z,15
2017-01-14T14:10:13.710Z,25
2017-01-14T14:11:13.712Z,30
2017-01-14T14:12:13.670Z,25
2017-01-14T14:13:13.660Z,25
2017-01-14T14:14:13.633Z,25
2017-01-14T14:15:13.621Z,30
2017-01-14T14:16:13.583Z,30
2017-01-14T14:17:13.579Z,25
2017-01-14T14:18:13.564Z,20
2017-01-14T14:19:13.529Z,15
2017-01-14T14:20:13.531Z,20
2017-01-14T14:21:13.490Z,20
2017-01-14T14:22:13.456Z,15
2017-01-14T14:23:13.449Z,20